Nordlys — LHCW — position and weather

sailwx.info

Track history (hours):
 
Tides and Currents Weather Stations Pressure Air Temp Water Temp Dewpoint Dewpoint Depression Visibility Wind Speed Wind Dir Waves Ship Positions

Nordlys

Last reported at 2018-Jan-20 03:00 UTC. Time now 2018-Jan-20 03:24 UTC.
Position N 68°52' E 015°31'.

Length 122 m; draft 4.5 m.

Type: Passenger vessel. MMSI: 259139000.

Date/timePositionNaut miles runAvg speedWind from/ knotsBaromVisibWave heightAir tempDewpointWater temp
2018-Jan-20 03:00N 68°52' E 015°31'714.8
2018-Jan-20 02:30N 68°45' E 015°26'3 6.8
2018-Jan-20 02:00N 68°42' E 015°25'1 1.8
2018-Jan-20 01:30N 68°41' E 015°26'714.4
2018-Jan-20 01:00N 68°36' E 015°13'713.4
2018-Jan-20 00:30N 68°34' E 014°55'3 6.7
2018-Jan-20 00:00N 68°33' E 015°03'613.0
2018-Jan-19 23:30N 68°28' E 015°12'714.2
2018-Jan-19 23:00N 68°21' E 015°03'1 2.2
2018-Jan-19 22:30N 68°21' E 014°60'713.7
2018-Jan-19 22:00N 68°15' E 014°56'611.1
2018-Jan-19 21:30N 68°14' E 014°41'3 5.4
2018-Jan-19 21:00N 68°14' E 014°34'0 0.0
2018-Jan-19 20:29N 68°14' E 014°34'0 0.3
2018-Jan-19 20:00N 68°14' E 014°34'612.0
2018-Jan-19 19:30N 68°10' E 014°20'713.7
2018-Jan-19 19:00N 68°07' E 014°05'510.7
2018-Jan-19 18:30N 68°07' E 013°50'0 0.1
2018-Jan-19 18:00N 68°07' E 013°50'713.3
2018-Jan-19 17:29N 68°01' E 013°55'714.0
2018-Jan-19 16:59N 67°54' E 014°01'714.1
2018-Jan-19 16:30N 67°48' E 014°07'714.1
2018-Jan-19 15:59N 67°41' E 014°14'714.4
2018-Jan-19 15:29N 67°34' E 014°20'714.5
2018-Jan-19 15:00N 67°27' E 014°24'713.4
2018-Jan-19 14:31N 67°21' E 014°23'3 6.6
2018-Jan-19 14:00N 67°17' E 014°24'0 0.0
2018-Jan-19 13:28N 67°17' E 014°24'0 0.0
2018-Jan-19 13:00N 67°17' E 014°24'0 0.0
2018-Jan-19 12:28N 67°17' E 014°24'0 0.0
2018-Jan-19 11:58N 67°17' E 014°24'0 0.0
2018-Jan-19 11:31N 67°17' E 014°24'611.8
2018-Jan-19 11:00N 67°14' E 014°12'714.7
2018-Jan-19 10:30N 67°08' E 014°01'714.8
2018-Jan-19 10:00N 67°02' E 013°48'814.9
2018-Jan-19 09:30N 66°58' E 013°32'5 9.3
2018-Jan-19 09:00N 66°54' E 013°37'3 5.1
2018-Jan-19 08:28N 66°52' E 013°42'510.5
2018-Jan-19 08:00N 66°49' E 013°32'714.7
2018-Jan-19 07:30N 66°46' E 013°16'714.7
2018-Jan-19 07:00N 66°39' E 013°07'713.4
2018-Jan-19 06:30N 66°33' E 013°01'713.6
2018-Jan-19 06:00N 66°26' E 012°59'815.0
2018-Jan-19 05:30N 66°19' E 012°56'612.2
2018-Jan-19 05:00N 66°13' E 012°59'1 1.9
2018-Jan-19 04:30N 66°12' E 013°00'611.1
2018-Jan-19 04:00N 66°08' E 012°50'713.5
2018-Jan-19 03:30N 66°03' E 012°39'3 7.0
2018-Jan-19 03:00N 66°01' E 012°33'714.5
2018-Jan-19 02:30N 65°55' E 012°23'714.6
2018-Jan-19 02:00N 65°48' E 012°20'714.7
2018-Jan-19 01:30N 65°40' E 012°16'714.7
2018-Jan-19 00:59N 65°33' E 012°13'5 9.3
2018-Jan-19 00:30N 65°29' E 012°13'0 0.4
2018-Jan-19 00:00N 65°28' E 012°12'612.7
2018-Jan-18 23:30N 65°23' E 012°06'714.0
2018-Jan-18 22:59N 65°16' E 011°57'714.1
2018-Jan-18 22:30N 65°10' E 011°51'713.7
2018-Jan-18 22:00N 65°04' E 011°45'713.4
2018-Jan-18 21:30N 65°00' E 011°31'612.9
2018-Jan-18 21:00N 64°55' E 011°22'510.0
2018-Jan-18 20:30N 64°52' E 011°14'0 0.0
2018-Jan-18 20:00N 64°52' E 011°14'510.5
2018-Jan-18 19:30N 64°48' E 011°06'713.7
2018-Jan-18 19:00N 64°43' E 010°54'713.8
2018-Jan-18 18:30N 64°38' E 010°42'714.6
2018-Jan-18 18:00N 64°33' E 010°31'713.5
2018-Jan-18 17:30N 64°26' E 010°27'713.0
2018-Jan-18 17:00N 64°20' E 010°26'612.5
2018-Jan-18 16:30N 64°15' E 010°17'714.1
2018-Jan-18 16:00N 64°09' E 010°07'713.6
2018-Jan-18 15:30N 64°05' E 009°55'713.2
2018-Jan-18 15:00N 63°60' E 009°46'713.9
2018-Jan-18 14:30N 63°53' E 009°43'814.6
2018-Jan-18 13:59N 63°47' E 009°33'714.9
2018-Jan-18 13:29N 63°39' E 009°29'612.7
2018-Jan-18 13:00N 63°39' E 009°42'714.2
2018-Jan-18 12:30N 63°33' E 009°51'714.5
2018-Jan-18 12:00N 63°29' E 010°03'815.2
2018-Jan-18 11:30N 63°27' E 010°20'2 4.3
2018-Jan-18 11:00N 63°27' E 010°24'0 0.0
2018-Jan-18 10:29N 63°27' E 010°24'0 0.0
2018-Jan-18 09:59N 63°27' E 010°24'0 0.0
2018-Jan-18 09:29N 63°27' E 010°24'0 0.0
2018-Jan-18 08:59N 63°27' E 010°24'0 0.0
2018-Jan-18 08:29N 63°27' E 010°24'0 0.0
2018-Jan-18 08:00N 63°27' E 010°24'0 0.0
2018-Jan-18 07:29N 63°27' E 010°24'0 0.0
2018-Jan-18 06:59N 63°27' E 010°24'0 0.0
2018-Jan-18 06:29N 63°27' E 010°24'0 0.0
2018-Jan-18 05:59N 63°27' E 010°24'0 0.0
2018-Jan-18 05:29N 63°27' E 010°24'0 0.0
2018-Jan-18 05:00N 63°27' E 010°24'2 4.3
2018-Jan-18 04:30N 63°27' E 010°20'713.1
2018-Jan-18 04:00N 63°28' E 010°05'612.8
2018-Jan-18 03:31N 63°32' E 009°53'611.4
2018-Jan-18 03:00N 63°37' E 009°48'4 8.8
2018-Jan-18 02:30N 63°38' E 009°38'714.7
2018-Jan-18 02:00N 63°35' E 009°24'713.6
2018-Jan-18 01:30N 63°31' E 009°11'814.6
2018-Jan-18 00:59N 63°28' E 008°55'1414.4
2018-Jan-18 00:00N 63°22' E 008°26'114.7
2018-Jan-17 23:57N 63°22' E 008°25'  
2018-Jan-12 15:00N 70°14' E 022°20'3 6.3
2018-Jan-12 14:30N 70°17' E 022°19'612.9
2018-Jan-12 14:00N 70°23' E 022°25'714.0
2018-Jan-12 13:30N 70°27' E 022°42'714.1
2018-Jan-12 13:00N 70°32' E 022°59'713.5
2018-Jan-12 12:30N 70°36' E 023°14'713.6
2018-Jan-12 12:00N 70°39' E 023°33'3 5.7
2018-Jan-12 11:30N 70°40' E 023°41'0 0.0
2018-Jan-12 11:00N 70°40' E 023°41'0 0.0
2018-Jan-12 10:30N 70°40' E 023°41'0 0.3
2018-Jan-12 10:00N 70°40' E 023°41'4 8.2
2018-Jan-12 09:30N 70°44' E 023°36'713.4
2018-Jan-12 09:00N 70°49' E 023°50'713.2
2018-Jan-12 08:30N 70°53' E 024°05'713.4
2018-Jan-12 08:00N 70°58' E 024°20'712.9
2018-Jan-12 07:30N 71°02' E 024°37'2 5.0
2018-Jan-12 07:00N 70°60' E 024°41'4 7.0
2018-Jan-12 06:30N 70°60' E 024°52'713.5
2018-Jan-12 06:00N 70°59' E 025°13'714.3
2018-Jan-12 05:29N 70°56' E 025°32'714.5
2018-Jan-12 05:00N 70°57' E 025°54'2 4.1
2018-Jan-12 04:30N 70°59' E 025°58'5 9.5
2018-Jan-12 03:58N 70°58' E 026°14'613.2
2018-Jan-12 03:30N 70°59' E 026°32'713.9
2018-Jan-12 02:59N 70°59' E 026°54'613.2
2018-Jan-12 02:30N 70°59' E 027°14'2 4.9
2018-Jan-12 02:00N 70°57' E 027°20'611.6
2018-Jan-12 01:29N 71°03' E 027°12'714.1
2018-Jan-12 01:00N 71°07' E 027°29'611.3
2018-Jan-12 00:30N 71°07' E 027°46'3 2.6
2018-Jan-11 23:14N 71°05' E 027°52'313.3
2018-Jan-11 23:01N 71°06' E 027°60'611.8
2018-Jan-11 22:30N 71°07' E 028°18'713.3
2018-Jan-11 22:00N 71°02' E 028°35'714.0
2018-Jan-11 21:29N 70°58' E 028°52'714.3
2018-Jan-11 20:59N 70°53' E 029°08'713.8
2018-Jan-11 20:30N 70°50' E 029°26'814.8
2018-Jan-11 19:59N 70°45' E 029°45'613.5
2018-Jan-11 19:30N 70°39' E 029°47'2 2.8
2018-Jan-11 18:55N 70°38' E 029°44'2 3.5
2018-Jan-11 18:30N 70°39' E 029°47'713.5
2018-Jan-11 17:59N 70°44' E 030°02'713.3
2018-Jan-11 17:29N 70°40' E 030°19'815.2
2018-Jan-11 17:00N 70°35' E 030°36'815.3
2018-Jan-11 16:30N 70°30' E 030°52'714.7
2018-Jan-11 16:00N 70°24' E 031°06'2 3.2
2018-Jan-11 15:29N 70°22' E 031°06'0 0.0
2018-Jan-11 15:01N 70°22' E 031°06'3 5.7
2018-Jan-11 14:29N 70°19' E 031°07'715.3
2018-Jan-11 14:00N 70°13' E 030°56'815.3
2018-Jan-11 13:30N 70°07' E 030°42'815.2
2018-Jan-11 13:00N 70°01' E 030°28'815.6
2018-Jan-11 12:29N 69°55' E 030°13'715.4
2018-Jan-11 12:00N 69°48' E 030°06'4 8.6
2018-Jan-11 11:30N 69°44' E 030°04'0 0.0
2018-Jan-11 10:58N 69°44' E 030°04'0 0.0
2018-Jan-11 10:28N 69°44' E 030°04'0 0.0
2018-Jan-11 09:58N 69°44' E 030°04'0 0.0
2018-Jan-11 09:28N 69°44' E 030°04'0 0.0
2018-Jan-11 08:58N 69°44' E 030°04'0 0.0
2018-Jan-11 08:28N 69°44' E 030°04'1 1.5
2018-Jan-11 07:59N 69°44' E 030°05'613.1
2018-Jan-11 07:30N 69°51' E 030°03'714.0
2018-Jan-11 06:59N 69°57' E 029°53'714.1
2018-Jan-11 06:30N 70°03' E 029°44'1 2.5
2018-Jan-11 06:00N 70°04' E 029°44'3 5.5
2018-Jan-11 05:30N 70°02' E 029°50'714.5
2018-Jan-11 05:01N 70°03' E 030°10'714.2
2018-Jan-11 04:29N 70°07' E 030°29'714.2
2018-Jan-11 04:00N 70°11' E 030°46'713.8
2018-Jan-11 03:30N 70°15' E 031°02'713.2
2018-Jan-11 03:00N 70°22' E 031°09'1 2.4
2018-Jan-11 02:30N 70°22' E 031°06'612.2
2018-Jan-11 02:00N 70°28' E 030°57'714.3
2018-Jan-11 01:30N 70°33' E 030°42'814.8
2018-Jan-11 00:59N 70°38' E 030°26'714.9
2018-Jan-11 00:30N 70°43' E 030°10'612.8
2018-Jan-11 00:00N 70°41' E 029°52'4 8.7
2018-Jan-10 23:30N 70°38' E 029°44'4 7.9
2018-Jan-10 23:00N 70°41' E 029°50'713.9
2018-Jan-10 22:30N 70°47' E 029°37'815.3
2018-Jan-10 22:00N 70°51' E 029°18'4 7.4
2018-Jan-10 21:30N 70°51' E 029°07'3 5.4
2018-Jan-10 21:00N 70°54' E 029°05'5 9.6
2018-Jan-10 20:30N 70°57' E 028°54'714.3
2018-Jan-10 20:00N 71°02' E 028°37'815.1
2018-Jan-10 19:30N 71°06' E 028°18'713.5
2018-Jan-10 19:00N 71°06' E 027°58'3 3.0
2018-Jan-10 17:58N 71°04' E 027°49'612.0
2018-Jan-10 17:30N 71°08' E 027°38'713.9
2018-Jan-10 16:59N 71°04' E 027°19'511.2
2018-Jan-10 16:30N 70°59' E 027°14'3 5.4
2018-Jan-10 16:00N 70°57' E 027°20'612.7
2018-Jan-10 15:30N 70°59' E 027°02'714.3
2018-Jan-10 15:00N 70°59' E 026°40'714.4
2018-Jan-10 14:30N 70°58' E 026°19'714.0
2018-Jan-10 14:00N 70°58' E 025°57'1 1.5
2018-Jan-10 13:29N 70°59' E 025°58'0 0.0
2018-Jan-10 12:59N 70°59' E 025°58'0 0.0
2018-Jan-10 12:29N 70°59' E 025°58'0 0.0
2018-Jan-10 11:59N 70°59' E 025°58'0 0.0
2018-Jan-10 11:29N 70°59' E 025°58'0 0.0
2018-Jan-10 10:59N 70°59' E 025°58'0 0.0
2018-Jan-10 10:29N 70°59' E 025°58'2 4.4
2018-Jan-10 10:00N 70°57' E 025°54'714.2
2018-Jan-10 09:30N 70°56' E 025°33'714.7
2018-Jan-10 08:59N 70°59' E 025°12'815.0
2018-Jan-10 08:29N 70°60' E 024°49'3 5.1
2018-Jan-10 07:59N 70°60' E 024°41'1 2.6
2018-Jan-10 07:30N 71°01' E 024°41'612.6
2018-Jan-10 07:00N 70°59' E 024°23'714.6
2018-Jan-10 06:30N 70°54' E 024°07'714.5
2018-Jan-10 06:00N 70°49' E 023°51'714.6
2018-Jan-10 05:30N 70°43' E 023°36'4 7.5
2018-Jan-10 05:00N 70°40' E 023°41'0 0.0
2018-Jan-10 04:30N 70°40' E 023°41'510.1
2018-Jan-10 04:00N 70°38' E 023°26'815.1
2018-Jan-10 03:30N 70°34' E 023°08'  
Track history (hours):
 
Tides and Currents Weather Stations Pressure Air Temp Water Temp Dewpoint Dewpoint Depression Visibility Wind Speed Wind Dir Waves Ship Positions

Nordlys

Last reported at 2018-Jan-20 03:00 UTC. Time now 2018-Jan-20 03:24 UTC.
Position N 68°52' E 015°31'.

Length 122 m; draft 4.5 m.

Type: Passenger vessel. MMSI: 259139000.

Date/timePositionNaut miles runAvg speedWind from/ knotsBaromVisibWave heightAir tempDewpointWater temp
2018-Jan-20 03:00N 68°52' E 015°31'714.8
2018-Jan-20 02:30N 68°45' E 015°26'3 6.8
2018-Jan-20 02:00N 68°42' E 015°25'1 1.8
2018-Jan-20 01:30N 68°41' E 015°26'714.4
2018-Jan-20 01:00N 68°36' E 015°13'713.4
2018-Jan-20 00:30N 68°34' E 014°55'3 6.7
2018-Jan-20 00:00N 68°33' E 015°03'613.0
2018-Jan-19 23:30N 68°28' E 015°12'714.2
2018-Jan-19 23:00N 68°21' E 015°03'1 2.2
2018-Jan-19 22:30N 68°21' E 014°60'713.7
2018-Jan-19 22:00N 68°15' E 014°56'611.1
2018-Jan-19 21:30N 68°14' E 014°41'3 5.4
2018-Jan-19 21:00N 68°14' E 014°34'0 0.0
2018-Jan-19 20:29N 68°14' E 014°34'0 0.3
2018-Jan-19 20:00N 68°14' E 014°34'612.0
2018-Jan-19 19:30N 68°10' E 014°20'713.7
2018-Jan-19 19:00N 68°07' E 014°05'510.7
2018-Jan-19 18:30N 68°07' E 013°50'0 0.1
2018-Jan-19 18:00N 68°07' E 013°50'713.3
2018-Jan-19 17:29N 68°01' E 013°55'714.0
2018-Jan-19 16:59N 67°54' E 014°01'714.1
2018-Jan-19 16:30N 67°48' E 014°07'714.1
2018-Jan-19 15:59N 67°41' E 014°14'714.4
2018-Jan-19 15:29N 67°34' E 014°20'714.5
2018-Jan-19 15:00N 67°27' E 014°24'713.4
2018-Jan-19 14:31N 67°21' E 014°23'3 6.6
2018-Jan-19 14:00N 67°17' E 014°24'0 0.0
2018-Jan-19 13:28N 67°17' E 014°24'0 0.0
2018-Jan-19 13:00N 67°17' E 014°24'0 0.0
2018-Jan-19 12:28N 67°17' E 014°24'0 0.0
2018-Jan-19 11:58N 67°17' E 014°24'0 0.0
2018-Jan-19 11:31N 67°17' E 014°24'611.8
2018-Jan-19 11:00N 67°14' E 014°12'714.7
2018-Jan-19 10:30N 67°08' E 014°01'714.8
2018-Jan-19 10:00N 67°02' E 013°48'814.9
2018-Jan-19 09:30N 66°58' E 013°32'5 9.3
2018-Jan-19 09:00N 66°54' E 013°37'3 5.1
2018-Jan-19 08:28N 66°52' E 013°42'510.5
2018-Jan-19 08:00N 66°49' E 013°32'714.7
2018-Jan-19 07:30N 66°46' E 013°16'714.7
2018-Jan-19 07:00N 66°39' E 013°07'713.4
2018-Jan-19 06:30N 66°33' E 013°01'713.6
2018-Jan-19 06:00N 66°26' E 012°59'815.0
2018-Jan-19 05:30N 66°19' E 012°56'612.2
2018-Jan-19 05:00N 66°13' E 012°59'1 1.9
2018-Jan-19 04:30N 66°12' E 013°00'611.1
2018-Jan-19 04:00N 66°08' E 012°50'713.5
2018-Jan-19 03:30N 66°03' E 012°39'3 7.0
2018-Jan-19 03:00N 66°01' E 012°33'714.5
2018-Jan-19 02:30N 65°55' E 012°23'714.6
2018-Jan-19 02:00N 65°48' E 012°20'714.7
2018-Jan-19 01:30N 65°40' E 012°16'714.7
2018-Jan-19 00:59N 65°33' E 012°13'5 9.3
2018-Jan-19 00:30N 65°29' E 012°13'0 0.4
2018-Jan-19 00:00N 65°28' E 012°12'612.7
2018-Jan-18 23:30N 65°23' E 012°06'714.0
2018-Jan-18 22:59N 65°16' E 011°57'714.1
2018-Jan-18 22:30N 65°10' E 011°51'713.7
2018-Jan-18 22:00N 65°04' E 011°45'713.4
2018-Jan-18 21:30N 65°00' E 011°31'612.9
2018-Jan-18 21:00N 64°55' E 011°22'510.0
2018-Jan-18 20:30N 64°52' E 011°14'0 0.0
2018-Jan-18 20:00N 64°52' E 011°14'510.5
2018-Jan-18 19:30N 64°48' E 011°06'713.7
2018-Jan-18 19:00N 64°43' E 010°54'713.8
2018-Jan-18 18:30N 64°38' E 010°42'714.6
2018-Jan-18 18:00N 64°33' E 010°31'713.5
2018-Jan-18 17:30N 64°26' E 010°27'713.0
2018-Jan-18 17:00N 64°20' E 010°26'612.5
2018-Jan-18 16:30N 64°15' E 010°17'714.1
2018-Jan-18 16:00N 64°09' E 010°07'713.6
2018-Jan-18 15:30N 64°05' E 009°55'713.2
2018-Jan-18 15:00N 63°60' E 009°46'713.9
2018-Jan-18 14:30N 63°53' E 009°43'814.6
2018-Jan-18 13:59N 63°47' E 009°33'714.9
2018-Jan-18 13:29N 63°39' E 009°29'612.7
2018-Jan-18 13:00N 63°39' E 009°42'714.2
2018-Jan-18 12:30N 63°33' E 009°51'714.5
2018-Jan-18 12:00N 63°29' E 010°03'815.2
2018-Jan-18 11:30N 63°27' E 010°20'2 4.3
2018-Jan-18 11:00N 63°27' E 010°24'0 0.0
2018-Jan-18 10:29N 63°27' E 010°24'0 0.0
2018-Jan-18 09:59N 63°27' E 010°24'0 0.0
2018-Jan-18 09:29N 63°27' E 010°24'0 0.0
2018-Jan-18 08:59N 63°27' E 010°24'0 0.0
2018-Jan-18 08:29N 63°27' E 010°24'0 0.0
2018-Jan-18 08:00N 63°27' E 010°24'0 0.0
2018-Jan-18 07:29N 63°27' E 010°24'0 0.0
2018-Jan-18 06:59N 63°27' E 010°24'0 0.0
2018-Jan-18 06:29N 63°27' E 010°24'0 0.0
2018-Jan-18 05:59N 63°27' E 010°24'0 0.0
2018-Jan-18 05:29N 63°27' E 010°24'0 0.0
2018-Jan-18 05:00N 63°27' E 010°24'2 4.3
2018-Jan-18 04:30N 63°27' E 010°20'713.1
2018-Jan-18 04:00N 63°28' E 010°05'612.8
2018-Jan-18 03:31N 63°32' E 009°53'611.4
2018-Jan-18 03:00N 63°37' E 009°48'4 8.8
2018-Jan-18 02:30N 63°38' E 009°38'714.7
2018-Jan-18 02:00N 63°35' E 009°24'713.6
2018-Jan-18 01:30N 63°31' E 009°11'814.6
2018-Jan-18 00:59N 63°28' E 008°55'1414.4
2018-Jan-18 00:00N 63°22' E 008°26'114.7
2018-Jan-17 23:57N 63°22' E 008°25'  
2018-Jan-12 15:00N 70°14' E 022°20'3 6.3
2018-Jan-12 14:30N 70°17' E 022°19'612.9
2018-Jan-12 14:00N 70°23' E 022°25'714.0
2018-Jan-12 13:30N 70°27' E 022°42'714.1
2018-Jan-12 13:00N 70°32' E 022°59'713.5
2018-Jan-12 12:30N 70°36' E 023°14'713.6
2018-Jan-12 12:00N 70°39' E 023°33'3 5.7
2018-Jan-12 11:30N 70°40' E 023°41'0 0.0
2018-Jan-12 11:00N 70°40' E 023°41'0 0.0
2018-Jan-12 10:30N 70°40' E 023°41'0 0.3
2018-Jan-12 10:00N 70°40' E 023°41'4 8.2
2018-Jan-12 09:30N 70°44' E 023°36'713.4
2018-Jan-12 09:00N 70°49' E 023°50'713.2
2018-Jan-12 08:30N 70°53' E 024°05'713.4
2018-Jan-12 08:00N 70°58' E 024°20'712.9
2018-Jan-12 07:30N 71°02' E 024°37'2 5.0
2018-Jan-12 07:00N 70°60' E 024°41'4 7.0
2018-Jan-12 06:30N 70°60' E 024°52'713.5
2018-Jan-12 06:00N 70°59' E 025°13'714.3
2018-Jan-12 05:29N 70°56' E 025°32'714.5
2018-Jan-12 05:00N 70°57' E 025°54'2 4.1
2018-Jan-12 04:30N 70°59' E 025°58'5 9.5
2018-Jan-12 03:58N 70°58' E 026°14'613.2
2018-Jan-12 03:30N 70°59' E 026°32'713.9
2018-Jan-12 02:59N 70°59' E 026°54'613.2
2018-Jan-12 02:30N 70°59' E 027°14'2 4.9
2018-Jan-12 02:00N 70°57' E 027°20'611.6
2018-Jan-12 01:29N 71°03' E 027°12'714.1
2018-Jan-12 01:00N 71°07' E 027°29'611.3
2018-Jan-12 00:30N 71°07' E 027°46'3 2.6
2018-Jan-11 23:14N 71°05' E 027°52'313.3
2018-Jan-11 23:01N 71°06' E 027°60'611.8
2018-Jan-11 22:30N 71°07' E 028°18'713.3
2018-Jan-11 22:00N 71°02' E 028°35'714.0
2018-Jan-11 21:29N 70°58' E 028°52'714.3
2018-Jan-11 20:59N 70°53' E 029°08'713.8
2018-Jan-11 20:30N 70°50' E 029°26'814.8
2018-Jan-11 19:59N 70°45' E 029°45'613.5
2018-Jan-11 19:30N 70°39' E 029°47'2 2.8
2018-Jan-11 18:55N 70°38' E 029°44'2 3.5
2018-Jan-11 18:30N 70°39' E 029°47'713.5
2018-Jan-11 17:59N 70°44' E 030°02'713.3
2018-Jan-11 17:29N 70°40' E 030°19'815.2
2018-Jan-11 17:00N 70°35' E 030°36'815.3
2018-Jan-11 16:30N 70°30' E 030°52'714.7
2018-Jan-11 16:00N 70°24' E 031°06'2 3.2
2018-Jan-11 15:29N 70°22' E 031°06'0 0.0
2018-Jan-11 15:01N 70°22' E 031°06'3 5.7
2018-Jan-11 14:29N 70°19' E 031°07'715.3
2018-Jan-11 14:00N 70°13' E 030°56'815.3
2018-Jan-11 13:30N 70°07' E 030°42'815.2
2018-Jan-11 13:00N 70°01' E 030°28'815.6
2018-Jan-11 12:29N 69°55' E 030°13'715.4
2018-Jan-11 12:00N 69°48' E 030°06'4 8.6
2018-Jan-11 11:30N 69°44' E 030°04'0 0.0
2018-Jan-11 10:58N 69°44' E 030°04'0 0.0
2018-Jan-11 10:28N 69°44' E 030°04'0 0.0
2018-Jan-11 09:58N 69°44' E 030°04'0 0.0
2018-Jan-11 09:28N 69°44' E 030°04'0 0.0
2018-Jan-11 08:58N 69°44' E 030°04'0 0.0
2018-Jan-11 08:28N 69°44' E 030°04'1 1.5
2018-Jan-11 07:59N 69°44' E 030°05'613.1
2018-Jan-11 07:30N 69°51' E 030°03'714.0
2018-Jan-11 06:59N 69°57' E 029°53'714.1
2018-Jan-11 06:30N 70°03' E 029°44'1 2.5
2018-Jan-11 06:00N 70°04' E 029°44'3 5.5
2018-Jan-11 05:30N 70°02' E 029°50'714.5
2018-Jan-11 05:01N 70°03' E 030°10'714.2
2018-Jan-11 04:29N 70°07' E 030°29'714.2
2018-Jan-11 04:00N 70°11' E 030°46'713.8
2018-Jan-11 03:30N 70°15' E 031°02'713.2
2018-Jan-11 03:00N 70°22' E 031°09'1 2.4
2018-Jan-11 02:30N 70°22' E 031°06'612.2
2018-Jan-11 02:00N 70°28' E 030°57'714.3
2018-Jan-11 01:30N 70°33' E 030°42'814.8
2018-Jan-11 00:59N 70°38' E 030°26'714.9
2018-Jan-11 00:30N 70°43' E 030°10'612.8
2018-Jan-11 00:00N 70°41' E 029°52'4 8.7
2018-Jan-10 23:30N 70°38' E 029°44'4 7.9
2018-Jan-10 23:00N 70°41' E 029°50'713.9
2018-Jan-10 22:30N 70°47' E 029°37'815.3
2018-Jan-10 22:00N 70°51' E 029°18'4 7.4
2018-Jan-10 21:30N 70°51' E 029°07'3 5.4
2018-Jan-10 21:00N 70°54' E 029°05'5 9.6
2018-Jan-10 20:30N 70°57' E 028°54'714.3
2018-Jan-10 20:00N 71°02' E 028°37'815.1
2018-Jan-10 19:30N 71°06' E 028°18'713.5
2018-Jan-10 19:00N 71°06' E 027°58'3 3.0
2018-Jan-10 17:58N 71°04' E 027°49'612.0
2018-Jan-10 17:30N 71°08' E 027°38'713.9
2018-Jan-10 16:59N 71°04' E 027°19'511.2
2018-Jan-10 16:30N 70°59' E 027°14'3 5.4
2018-Jan-10 16:00N 70°57' E 027°20'612.7
2018-Jan-10 15:30N 70°59' E 027°02'714.3
2018-Jan-10 15:00N 70°59' E 026°40'714.4
2018-Jan-10 14:30N 70°58' E 026°19'714.0
2018-Jan-10 14:00N 70°58' E 025°57'1 1.5
2018-Jan-10 13:29N 70°59' E 025°58'0 0.0
2018-Jan-10 12:59N 70°59' E 025°58'0 0.0
2018-Jan-10 12:29N 70°59' E 025°58'0 0.0
2018-Jan-10 11:59N 70°59' E 025°58'0 0.0
2018-Jan-10 11:29N 70°59' E 025°58'0 0.0
2018-Jan-10 10:59N 70°59' E 025°58'0 0.0
2018-Jan-10 10:29N 70°59' E 025°58'2 4.4
2018-Jan-10 10:00N 70°57' E 025°54'714.2
2018-Jan-10 09:30N 70°56' E 025°33'714.7
2018-Jan-10 08:59N 70°59' E 025°12'815.0
2018-Jan-10 08:29N 70°60' E 024°49'3 5.1
2018-Jan-10 07:59N 70°60' E 024°41'1 2.6
2018-Jan-10 07:30N 71°01' E 024°41'612.6
2018-Jan-10 07:00N 70°59' E 024°23'714.6
2018-Jan-10 06:30N 70°54' E 024°07'714.5
2018-Jan-10 06:00N 70°49' E 023°51'714.6
2018-Jan-10 05:30N 70°43' E 023°36'4 7.5
2018-Jan-10 05:00N 70°40' E 023°41'0 0.0
2018-Jan-10 04:30N 70°40' E 023°41'510.1
2018-Jan-10 04:00N 70°38' E 023°26'815.1
2018-Jan-10 03:30N 70°34' E 023°08'  

Dump ship's entire track history